sensor_id;sensor_type;location;lat;lon;timestamp;P1;durP1;ratioP1;P2;durP2;ratioP2
48006;SDS011;33771;48.180;11.400;2024-01-07T00:01:26;26.37;;;17.27;;
48006;SDS011;33771;48.180;11.400;2024-01-07T00:03:51;25.27;;;16.73;;
48006;SDS011;33771;48.180;11.400;2024-01-07T00:06:17;29.30;;;18.37;;
48006;SDS011;33771;48.180;11.400;2024-01-07T00:08:43;27.23;;;17.50;;
48006;SDS011;33771;48.180;11.400;2024-01-07T00:11:08;25.17;;;17.50;;
48006;SDS011;33771;48.180;11.400;2024-01-07T00:13:34;27.03;;;17.20;;
48006;SDS011;33771;48.180;11.400;2024-01-07T00:16:00;26.90;;;17.73;;
48006;SDS011;33771;48.180;11.400;2024-01-07T00:18:26;28.67;;;17.90;;
48006;SDS011;33771;48.180;11.400;2024-01-07T00:20:52;25.77;;;16.77;;
48006;SDS011;33771;48.180;11.400;2024-01-07T00:23:18;26.83;;;18.13;;
48006;SDS011;33771;48.180;11.400;2024-01-07T00:25:45;25.60;;;16.83;;
48006;SDS011;33771;48.180;11.400;2024-01-07T00:28:12;24.97;;;17.87;;
48006;SDS011;33771;48.180;11.400;2024-01-07T00:30:37;23.70;;;16.93;;
48006;SDS011;33771;48.180;11.400;2024-01-07T00:33:03;25.73;;;17.03;;
48006;SDS011;33771;48.180;11.400;2024-01-07T00:35:28;26.43;;;16.80;;
48006;SDS011;33771;48.180;11.400;2024-01-07T00:37:54;23.40;;;16.60;;
48006;SDS011;33771;48.180;11.400;2024-01-07T00:40:21;27.53;;;17.90;;
48006;SDS011;33771;48.180;11.400;2024-01-07T00:42:49;23.60;;;17.40;;
48006;SDS011;33771;48.180;11.400;2024-01-07T00:45:16;26.67;;;17.70;;
48006;SDS011;33771;48.180;11.400;2024-01-07T00:47:42;24.93;;;17.43;;
48006;SDS011;33771;48.180;11.400;2024-01-07T00:50:07;24.33;;;16.80;;
48006;SDS011;33771;48.180;11.400;2024-01-07T00:52:33;27.90;;;18.60;;
48006;SDS011;33771;48.180;11.400;2024-01-07T00:54:59;23.93;;;16.73;;
48006;SDS011;33771;48.180;11.400;2024-01-07T00:57:25;24.23;;;17.57;;
48006;SDS011;33771;48.180;11.400;2024-01-07T00:59:50;26.60;;;17.60;;
48006;SDS011;33771;48.180;11.400;2024-01-07T01:02:16;27.07;;;18.67;;
48006;SDS011;33771;48.180;11.400;2024-01-07T01:04:42;24.17;;;17.40;;
48006;SDS011;33771;48.180;11.400;2024-01-07T01:07:07;24.47;;;17.13;;
48006;SDS011;33771;48.180;11.400;2024-01-07T01:09:33;25.17;;;17.23;;
48006;SDS011;33771;48.180;11.400;2024-01-07T01:11:59;25.83;;;17.73;;
48006;SDS011;33771;48.180;11.400;2024-01-07T01:14:24;25.07;;;17.73;;
48006;SDS011;33771;48.180;11.400;2024-01-07T01:16:50;25.97;;;18.03;;
48006;SDS011;33771;48.180;11.400;2024-01-07T01:19:15;27.03;;;18.97;;
48006;SDS011;33771;48.180;11.400;2024-01-07T01:21:42;26.03;;;17.97;;
48006;SDS011;33771;48.180;11.400;2024-01-07T01:24:07;25.07;;;17.93;;
48006;SDS011;33771;48.180;11.400;2024-01-07T01:26:33;25.07;;;18.27;;
48006;SDS011;33771;48.180;11.400;2024-01-07T01:28:58;26.43;;;18.47;;
48006;SDS011;33771;48.180;11.400;2024-01-07T01:31:24;25.53;;;18.83;;
48006;SDS011;33771;48.180;11.400;2024-01-07T01:33:49;25.80;;;18.43;;
48006;SDS011;33771;48.180;11.400;2024-01-07T01:36:15;28.50;;;19.53;;
48006;SDS011;33771;48.180;11.400;2024-01-07T01:38:40;25.50;;;17.90;;
48006;SDS011;33771;48.180;11.400;2024-01-07T01:41:06;24.47;;;18.60;;
48006;SDS011;33771;48.180;11.400;2024-01-07T01:43:31;26.57;;;18.97;;
48006;SDS011;33771;48.180;11.400;2024-01-07T01:45:58;26.37;;;18.83;;
48006;SDS011;33771;48.180;11.400;2024-01-07T01:48:24;26.37;;;19.10;;
48006;SDS011;33771;48.180;11.400;2024-01-07T01:50:51;26.83;;;18.57;;
48006;SDS011;33771;48.180;11.400;2024-01-07T01:53:19;25.37;;;18.77;;
48006;SDS011;33771;48.180;11.400;2024-01-07T01:55:45;28.40;;;19.40;;
48006;SDS011;33771;48.180;11.400;2024-01-07T01:58:10;28.30;;;19.80;;
48006;SDS011;33771;48.180;11.400;2024-01-07T02:00:38;26.40;;;19.10;;
48006;SDS011;33771;48.180;11.400;2024-01-07T02:03:05;26.93;;;19.67;;
48006;SDS011;33771;48.180;11.400;2024-01-07T02:05:30;26.10;;;18.97;;
48006;SDS011;33771;48.180;11.400;2024-01-07T02:07:56;26.00;;;18.67;;
48006;SDS011;33771;48.180;11.400;2024-01-07T02:10:23;26.23;;;18.20;;
48006;SDS011;33771;48.180;11.400;2024-01-07T02:12:48;26.77;;;19.00;;
48006;SDS011;33771;48.180;11.400;2024-01-07T02:15:14;28.97;;;18.80;;
48006;SDS011;33771;48.180;11.400;2024-01-07T02:17:40;26.57;;;19.43;;
48006;SDS011;33771;48.180;11.400;2024-01-07T02:20:06;26.53;;;19.23;;
48006;SDS011;33771;48.180;11.400;2024-01-07T02:22:32;25.37;;;19.00;;
48006;SDS011;33771;48.180;11.400;2024-01-07T02:24:58;26.60;;;18.63;;
48006;SDS011;33771;48.180;11.400;2024-01-07T02:27:23;24.50;;;18.57;;
48006;SDS011;33771;48.180;11.400;2024-01-07T02:29:49;25.43;;;18.90;;
48006;SDS011;33771;48.180;11.400;2024-01-07T02:32:14;24.40;;;18.67;;
48006;SDS011;33771;48.180;11.400;2024-01-07T02:34:40;27.67;;;19.70;;
48006;SDS011;33771;48.180;11.400;2024-01-07T02:37:05;24.33;;;17.47;;
48006;SDS011;33771;48.180;11.400;2024-01-07T02:39:31;25.77;;;18.47;;
48006;SDS011;33771;48.180;11.400;2024-01-07T02:41:56;25.43;;;17.90;;
48006;SDS011;33771;48.180;11.400;2024-01-07T02:44:22;23.87;;;18.30;;
48006;SDS011;33771;48.180;11.400;2024-01-07T02:46:47;22.77;;;17.57;;
48006;SDS011;33771;48.180;11.400;2024-01-07T02:49:13;24.93;;;17.70;;
48006;SDS011;33771;48.180;11.400;2024-01-07T02:51:39;22.27;;;17.17;;
48006;SDS011;33771;48.180;11.400;2024-01-07T02:54:04;22.40;;;16.90;;
48006;SDS011;33771;48.180;11.400;2024-01-07T02:56:30;22.97;;;17.10;;
48006;SDS011;33771;48.180;11.400;2024-01-07T02:58:55;23.87;;;16.73;;
48006;SDS011;33771;48.180;11.400;2024-01-07T03:01:24;22.73;;;17.30;;
48006;SDS011;33771;48.180;11.400;2024-01-07T03:03:49;24.47;;;17.60;;
48006;SDS011;33771;48.180;11.400;2024-01-07T03:06:15;21.47;;;17.07;;
48006;SDS011;33771;48.180;11.400;2024-01-07T03:08:41;25.53;;;18.13;;
48006;SDS011;33771;48.180;11.400;2024-01-07T03:11:07;26.63;;;18.83;;
48006;SDS011;33771;48.180;11.400;2024-01-07T03:13:33;23.20;;;17.33;;
48006;SDS011;33771;48.180;11.400;2024-01-07T03:15:59;23.63;;;17.87;;
48006;SDS011;33771;48.180;11.400;2024-01-07T03:18:24;26.00;;;18.43;;
48006;SDS011;33771;48.180;11.400;2024-01-07T03:20:51;23.17;;;17.43;;
48006;SDS011;33771;48.180;11.400;2024-01-07T03:23:17;25.23;;;17.63;;
48006;SDS011;33771;48.180;11.400;2024-01-07T03:25:43;22.83;;;16.97;;
48006;SDS011;33771;48.180;11.400;2024-01-07T03:28:09;23.20;;;17.40;;
48006;SDS011;33771;48.180;11.400;2024-01-07T03:30:34;24.33;;;17.63;;
48006;SDS011;33771;48.180;11.400;2024-01-07T03:33:00;22.87;;;16.67;;
48006;SDS011;33771;48.180;11.400;2024-01-07T03:35:26;22.73;;;16.40;;
48006;SDS011;33771;48.180;11.400;2024-01-07T03:37:52;23.30;;;16.87;;
48006;SDS011;33771;48.180;11.400;2024-01-07T03:40:17;22.50;;;16.73;;
48006;SDS011;33771;48.180;11.400;2024-01-07T03:42:43;22.37;;;16.17;;
48006;SDS011;33771;48.180;11.400;2024-01-07T03:45:08;19.37;;;14.77;;
48006;SDS011;33771;48.180;11.400;2024-01-07T03:47:34;20.80;;;15.90;;
48006;SDS011;33771;48.180;11.400;2024-01-07T03:49:59;23.77;;;16.57;;
48006;SDS011;33771;48.180;11.400;2024-01-07T03:52:25;23.23;;;15.83;;
48006;SDS011;33771;48.180;11.400;2024-01-07T03:54:50;21.43;;;16.17;;
48006;SDS011;33771;48.180;11.400;2024-01-07T03:57:16;20.73;;;15.73;;
48006;SDS011;33771;48.180;11.400;2024-01-07T03:59:42;20.23;;;15.83;;
48006;SDS011;33771;48.180;11.400;2024-01-07T04:02:07;20.70;;;15.20;;
48006;SDS011;33771;48.180;11.400;2024-01-07T04:04:33;20.93;;;15.30;;
48006;SDS011;33771;48.180;11.400;2024-01-07T04:06:58;18.70;;;14.77;;
48006;SDS011;33771;48.180;11.400;2024-01-07T04:09:24;21.27;;;15.47;;
48006;SDS011;33771;48.180;11.400;2024-01-07T04:11:49;22.37;;;16.93;;
48006;SDS011;33771;48.180;11.400;2024-01-07T04:14:15;20.50;;;16.20;;
48006;SDS011;33771;48.180;11.400;2024-01-07T04:16:41;20.53;;;15.80;;
48006;SDS011;33771;48.180;11.400;2024-01-07T04:19:06;22.77;;;16.07;;
48006;SDS011;33771;48.180;11.400;2024-01-07T04:21:32;21.30;;;15.70;;
48006;SDS011;33771;48.180;11.400;2024-01-07T04:23:57;20.37;;;15.93;;
48006;SDS011;33771;48.180;11.400;2024-01-07T04:26:23;20.07;;;15.70;;
48006;SDS011;33771;48.180;11.400;2024-01-07T04:28:49;21.13;;;15.80;;
48006;SDS011;33771;48.180;11.400;2024-01-07T04:31:15;21.23;;;16.10;;
48006;SDS011;33771;48.180;11.400;2024-01-07T04:33:40;21.90;;;17.07;;
48006;SDS011;33771;48.180;11.400;2024-01-07T04:36:06;22.87;;;16.97;;
48006;SDS011;33771;48.180;11.400;2024-01-07T04:38:32;23.00;;;16.93;;
48006;SDS011;33771;48.180;11.400;2024-01-07T04:40:57;24.03;;;16.93;;
48006;SDS011;33771;48.180;11.400;2024-01-07T04:43:23;22.53;;;15.50;;
48006;SDS011;33771;48.180;11.400;2024-01-07T04:45:48;21.93;;;15.47;;
48006;SDS011;33771;48.180;11.400;2024-01-07T04:48:14;20.97;;;15.43;;
48006;SDS011;33771;48.180;11.400;2024-01-07T04:50:40;20.27;;;15.67;;
48006;SDS011;33771;48.180;11.400;2024-01-07T04:53:08;20.80;;;15.27;;
48006;SDS011;33771;48.180;11.400;2024-01-07T04:55:34;19.47;;;14.93;;
48006;SDS011;33771;48.180;11.400;2024-01-07T04:58:01;18.80;;;14.53;;
48006;SDS011;33771;48.180;11.400;2024-01-07T05:00:26;20.10;;;14.20;;
48006;SDS011;33771;48.180;11.400;2024-01-07T05:02:52;18.33;;;13.70;;
48006;SDS011;33771;48.180;11.400;2024-01-07T05:05:18;19.20;;;14.17;;
48006;SDS011;33771;48.180;11.400;2024-01-07T05:07:43;19.03;;;14.20;;
48006;SDS011;33771;48.180;11.400;2024-01-07T05:10:09;17.80;;;13.57;;
48006;SDS011;33771;48.180;11.400;2024-01-07T05:12:34;17.57;;;13.80;;
48006;SDS011;33771;48.180;11.400;2024-01-07T05:15:00;17.17;;;13.70;;
48006;SDS011;33771;48.180;11.400;2024-01-07T05:17:25;16.90;;;13.27;;
48006;SDS011;33771;48.180;11.400;2024-01-07T05:19:51;17.13;;;13.37;;
48006;SDS011;33771;48.180;11.400;2024-01-07T05:22:17;16.93;;;13.17;;
48006;SDS011;33771;48.180;11.400;2024-01-07T05:24:42;15.53;;;12.13;;
48006;SDS011;33771;48.180;11.400;2024-01-07T05:27:08;16.03;;;13.27;;
48006;SDS011;33771;48.180;11.400;2024-01-07T05:29:34;18.00;;;13.60;;
48006;SDS011;33771;48.180;11.400;2024-01-07T05:31:59;18.50;;;13.53;;
48006;SDS011;33771;48.180;11.400;2024-01-07T05:34:26;18.07;;;13.30;;
48006;SDS011;33771;48.180;11.400;2024-01-07T05:36:52;17.47;;;13.13;;
48006;SDS011;33771;48.180;11.400;2024-01-07T05:39:18;17.03;;;13.20;;
48006;SDS011;33771;48.180;11.400;2024-01-07T05:41:43;17.30;;;13.63;;
48006;SDS011;33771;48.180;11.400;2024-01-07T05:44:09;16.47;;;12.67;;
48006;SDS011;33771;48.180;11.400;2024-01-07T05:46:37;17.90;;;13.00;;
48006;SDS011;33771;48.180;11.400;2024-01-07T05:49:04;16.10;;;12.43;;
48006;SDS011;33771;48.180;11.400;2024-01-07T05:51:30;17.53;;;13.33;;
48006;SDS011;33771;48.180;11.400;2024-01-07T05:53:56;16.93;;;12.83;;
48006;SDS011;33771;48.180;11.400;2024-01-07T05:56:21;18.67;;;12.40;;
48006;SDS011;33771;48.180;11.400;2024-01-07T05:58:47;15.63;;;12.40;;
48006;SDS011;33771;48.180;11.400;2024-01-07T06:01:17;17.47;;;13.13;;
48006;SDS011;33771;48.180;11.400;2024-01-07T06:03:44;17.33;;;12.27;;
48006;SDS011;33771;48.180;11.400;2024-01-07T06:06:11;17.33;;;12.50;;
48006;SDS011;33771;48.180;11.400;2024-01-07T06:08:38;16.47;;;12.60;;
48006;SDS011;33771;48.180;11.400;2024-01-07T06:11:03;15.30;;;11.53;;
48006;SDS011;33771;48.180;11.400;2024-01-07T06:13:29;15.27;;;12.00;;
48006;SDS011;33771;48.180;11.400;2024-01-07T06:15:54;15.60;;;12.00;;
48006;SDS011;33771;48.180;11.400;2024-01-07T06:18:20;17.73;;;13.40;;
48006;SDS011;33771;48.180;11.400;2024-01-07T06:20:45;17.23;;;12.70;;
48006;SDS011;33771;48.180;11.400;2024-01-07T06:23:11;15.30;;;12.00;;
48006;SDS011;33771;48.180;11.400;2024-01-07T06:25:37;23.30;;;13.37;;
48006;SDS011;33771;48.180;11.400;2024-01-07T06:28:04;16.23;;;12.43;;
48006;SDS011;33771;48.180;11.400;2024-01-07T06:30:29;18.20;;;13.70;;
48006;SDS011;33771;48.180;11.400;2024-01-07T06:32:55;18.13;;;13.73;;
48006;SDS011;33771;48.180;11.400;2024-01-07T06:35:20;16.20;;;12.13;;
48006;SDS011;33771;48.180;11.400;2024-01-07T06:37:46;17.07;;;12.53;;
48006;SDS011;33771;48.180;11.400;2024-01-07T06:40:12;18.20;;;13.70;;
48006;SDS011;33771;48.180;11.400;2024-01-07T06:42:38;17.10;;;12.63;;
48006;SDS011;33771;48.180;11.400;2024-01-07T06:45:03;15.17;;;11.80;;
48006;SDS011;33771;48.180;11.400;2024-01-07T06:47:29;18.47;;;11.70;;
48006;SDS011;33771;48.180;11.400;2024-01-07T06:49:55;15.87;;;12.67;;
48006;SDS011;33771;48.180;11.400;2024-01-07T06:52:20;17.40;;;12.60;;
48006;SDS011;33771;48.180;11.400;2024-01-07T06:54:46;18.10;;;13.53;;
48006;SDS011;33771;48.180;11.400;2024-01-07T06:57:11;16.27;;;11.73;;
48006;SDS011;33771;48.180;11.400;2024-01-07T06:59:37;15.73;;;11.93;;
48006;SDS011;33771;48.180;11.400;2024-01-07T07:02:03;17.23;;;12.20;;
48006;SDS011;33771;48.180;11.400;2024-01-07T07:04:28;18.13;;;12.73;;
48006;SDS011;33771;48.180;11.400;2024-01-07T07:06:54;17.67;;;13.23;;
48006;SDS011;33771;48.180;11.400;2024-01-07T07:09:19;18.60;;;13.47;;
48006;SDS011;33771;48.180;11.400;2024-01-07T07:11:45;19.77;;;13.33;;
48006;SDS011;33771;48.180;11.400;2024-01-07T07:14:10;18.63;;;12.40;;
48006;SDS011;33771;48.180;11.400;2024-01-07T07:16:36;19.57;;;12.73;;
48006;SDS011;33771;48.180;11.400;2024-01-07T07:19:01;17.93;;;13.33;;
48006;SDS011;33771;48.180;11.400;2024-01-07T07:21:27;15.53;;;11.57;;
48006;SDS011;33771;48.180;11.400;2024-01-07T07:23:53;15.67;;;11.40;;
48006;SDS011;33771;48.180;11.400;2024-01-07T07:26:18;17.10;;;12.20;;
48006;SDS011;33771;48.180;11.400;2024-01-07T07:28:44;17.63;;;12.80;;
48006;SDS011;33771;48.180;11.400;2024-01-07T07:31:10;21.53;;;14.67;;
48006;SDS011;33771;48.180;11.400;2024-01-07T07:33:38;19.63;;;14.23;;
48006;SDS011;33771;48.180;11.400;2024-01-07T07:36:04;62.13;;;34.17;;
48006;SDS011;33771;48.180;11.400;2024-01-07T07:38:30;23.30;;;15.27;;
48006;SDS011;33771;48.180;11.400;2024-01-07T07:40:56;18.33;;;13.17;;
48006;SDS011;33771;48.180;11.400;2024-01-07T07:43:21;18.87;;;12.90;;
48006;SDS011;33771;48.180;11.400;2024-01-07T07:45:55;18.10;;;12.57;;
48006;SDS011;33771;48.180;11.400;2024-01-07T07:48:21;19.47;;;12.73;;
48006;SDS011;33771;48.180;11.400;2024-01-07T07:50:48;19.10;;;13.37;;
48006;SDS011;33771;48.180;11.400;2024-01-07T07:53:14;18.37;;;11.53;;
48006;SDS011;33771;48.180;11.400;2024-01-07T07:55:40;18.10;;;12.50;;
48006;SDS011;33771;48.180;11.400;2024-01-07T07:58:05;18.53;;;12.17;;
48006;SDS011;33771;48.180;11.400;2024-01-07T08:00:31;24.47;;;14.67;;
48006;SDS011;33771;48.180;11.400;2024-01-07T08:02:56;17.20;;;12.40;;
48006;SDS011;33771;48.180;11.400;2024-01-07T08:05:22;22.27;;;14.30;;
48006;SDS011;33771;48.180;11.400;2024-01-07T08:07:47;18.37;;;13.60;;
48006;SDS011;33771;48.180;11.400;2024-01-07T08:10:13;17.43;;;12.37;;
48006;SDS011;33771;48.180;11.400;2024-01-07T08:12:39;21.00;;;13.93;;
48006;SDS011;33771;48.180;11.400;2024-01-07T08:15:04;19.20;;;13.37;;
48006;SDS011;33771;48.180;11.400;2024-01-07T08:17:31;19.00;;;12.83;;
48006;SDS011;33771;48.180;11.400;2024-01-07T08:19:56;19.53;;;12.93;;
48006;SDS011;33771;48.180;11.400;2024-01-07T08:22:22;20.83;;;14.30;;
48006;SDS011;33771;48.180;11.400;2024-01-07T08:24:47;18.43;;;13.20;;
48006;SDS011;33771;48.180;11.400;2024-01-07T08:27:13;17.90;;;12.73;;
48006;SDS011;33771;48.180;11.400;2024-01-07T08:29:38;18.90;;;12.97;;
48006;SDS011;33771;48.180;11.400;2024-01-07T08:32:04;20.40;;;13.67;;
48006;SDS011;33771;48.180;11.400;2024-01-07T08:34:30;22.83;;;14.43;;
48006;SDS011;33771;48.180;11.400;2024-01-07T08:36:55;18.50;;;13.30;;
48006;SDS011;33771;48.180;11.400;2024-01-07T08:39:21;21.93;;;14.93;;
48006;SDS011;33771;48.180;11.400;2024-01-07T08:41:46;20.60;;;13.23;;
48006;SDS011;33771;48.180;11.400;2024-01-07T08:44:12;21.07;;;13.03;;
48006;SDS011;33771;48.180;11.400;2024-01-07T08:46:38;21.23;;;13.27;;
48006;SDS011;33771;48.180;11.400;2024-01-07T08:49:03;19.17;;;13.57;;
48006;SDS011;33771;48.180;11.400;2024-01-07T08:51:29;20.27;;;13.70;;
48006;SDS011;33771;48.180;11.400;2024-01-07T08:53:54;20.90;;;13.47;;
48006;SDS011;33771;48.180;11.400;2024-01-07T08:56:22;20.90;;;15.43;;
48006;SDS011;33771;48.180;11.400;2024-01-07T08:58:48;23.50;;;13.73;;
48006;SDS011;33771;48.180;11.400;2024-01-07T09:01:13;24.30;;;15.77;;
48006;SDS011;33771;48.180;11.400;2024-01-07T09:03:39;24.80;;;16.83;;
48006;SDS011;33771;48.180;11.400;2024-01-07T09:06:06;24.80;;;15.63;;
48006;SDS011;33771;48.180;11.400;2024-01-07T09:08:32;21.93;;;14.70;;
48006;SDS011;33771;48.180;11.400;2024-01-07T09:10:59;22.63;;;14.93;;
48006;SDS011;33771;48.180;11.400;2024-01-07T09:13:27;23.17;;;14.77;;
48006;SDS011;33771;48.180;11.400;2024-01-07T09:15:53;25.07;;;15.17;;
48006;SDS011;33771;48.180;11.400;2024-01-07T09:18:18;22.30;;;14.93;;
48006;SDS011;33771;48.180;11.400;2024-01-07T09:20:44;22.87;;;14.60;;
48006;SDS011;33771;48.180;11.400;2024-01-07T09:23:09;25.30;;;15.97;;
48006;SDS011;33771;48.180;11.400;2024-01-07T09:25:35;22.43;;;14.47;;
48006;SDS011;33771;48.180;11.400;2024-01-07T09:28:00;23.83;;;16.17;;
48006;SDS011;33771;48.180;11.400;2024-01-07T09:30:26;24.83;;;15.40;;
48006;SDS011;33771;48.180;11.400;2024-01-07T09:32:51;22.13;;;15.20;;
48006;SDS011;33771;48.180;11.400;2024-01-07T09:35:17;23.57;;;15.90;;
48006;SDS011;33771;48.180;11.400;2024-01-07T09:37:43;21.10;;;13.87;;
48006;SDS011;33771;48.180;11.400;2024-01-07T09:40:08;24.63;;;15.37;;
48006;SDS011;33771;48.180;11.400;2024-01-07T09:42:34;24.33;;;14.87;;
48006;SDS011;33771;48.180;11.400;2024-01-07T09:45:02;23.47;;;15.33;;
48006;SDS011;33771;48.180;11.400;2024-01-07T09:47:29;24.97;;;15.70;;
48006;SDS011;33771;48.180;11.400;2024-01-07T09:49:55;22.73;;;14.67;;
48006;SDS011;33771;48.180;11.400;2024-01-07T09:52:21;21.07;;;13.20;;
48006;SDS011;33771;48.180;11.400;2024-01-07T09:54:47;21.83;;;13.60;;
48006;SDS011;33771;48.180;11.400;2024-01-07T09:57:23;22.47;;;14.27;;
48006;SDS011;33771;48.180;11.400;2024-01-07T09:59:48;22.33;;;15.00;;
48006;SDS011;33771;48.180;11.400;2024-01-07T10:02:14;21.47;;;14.23;;
48006;SDS011;33771;48.180;11.400;2024-01-07T10:04:40;20.13;;;13.43;;
48006;SDS011;33771;48.180;11.400;2024-01-07T10:07:06;20.63;;;14.03;;
48006;SDS011;33771;48.180;11.400;2024-01-07T10:09:33;22.37;;;13.80;;
48006;SDS011;33771;48.180;11.400;2024-01-07T10:11:59;21.43;;;13.53;;
48006;SDS011;33771;48.180;11.400;2024-01-07T10:14:24;20.97;;;14.97;;
48006;SDS011;33771;48.180;11.400;2024-01-07T10:16:51;20.87;;;14.13;;
48006;SDS011;33771;48.180;11.400;2024-01-07T10:19:20;21.87;;;13.07;;
48006;SDS011;33771;48.180;11.400;2024-01-07T10:22:00;22.53;;;14.03;;
48006;SDS011;33771;48.180;11.400;2024-01-07T10:24:35;21.47;;;14.43;;
48006;SDS011;33771;48.180;11.400;2024-01-07T10:27:05;20.47;;;13.70;;
48006;SDS011;33771;48.180;11.400;2024-01-07T10:29:32;23.90;;;14.47;;
48006;SDS011;33771;48.180;11.400;2024-01-07T10:31:58;20.43;;;13.90;;
48006;SDS011;33771;48.180;11.400;2024-01-07T10:34:24;21.37;;;14.13;;
48006;SDS011;33771;48.180;11.400;2024-01-07T10:36:54;20.20;;;12.87;;
48006;SDS011;33771;48.180;11.400;2024-01-07T10:39:21;22.93;;;14.53;;
48006;SDS011;33771;48.180;11.400;2024-01-07T10:41:48;21.30;;;13.40;;
48006;SDS011;33771;48.180;11.400;2024-01-07T10:44:15;22.43;;;14.03;;
48006;SDS011;33771;48.180;11.400;2024-01-07T10:46:41;18.63;;;12.70;;
48006;SDS011;33771;48.180;11.400;2024-01-07T10:49:13;18.67;;;12.20;;
48006;SDS011;33771;48.180;11.400;2024-01-07T10:54:29;19.50;;;13.20;;
48006;SDS011;33771;48.180;11.400;2024-01-07T10:56:58;19.20;;;12.60;;
48006;SDS011;33771;48.180;11.400;2024-01-07T10:59:26;18.50;;;12.80;;
48006;SDS011;33771;48.180;11.400;2024-01-07T11:01:54;18.10;;;12.07;;
48006;SDS011;33771;48.180;11.400;2024-01-07T11:04:30;21.47;;;13.10;;
48006;SDS011;33771;48.180;11.400;2024-01-07T11:07:18;22.10;;;13.20;;
48006;SDS011;33771;48.180;11.400;2024-01-07T11:10:02;19.40;;;12.53;;
48006;SDS011;33771;48.180;11.400;2024-01-07T11:12:38;19.50;;;12.70;;
48006;SDS011;33771;48.180;11.400;2024-01-07T11:15:04;19.33;;;12.33;;
48006;SDS011;33771;48.180;11.400;2024-01-07T11:20:01;20.07;;;13.17;;
48006;SDS011;33771;48.180;11.400;2024-01-07T11:22:30;20.87;;;12.93;;
48006;SDS011;33771;48.180;11.400;2024-01-07T11:24:57;23.23;;;14.90;;
48006;SDS011;33771;48.180;11.400;2024-01-07T11:27:25;22.07;;;14.77;;
48006;SDS011;33771;48.180;11.400;2024-01-07T11:29:56;21.27;;;13.57;;
48006;SDS011;33771;48.180;11.400;2024-01-07T11:32:35;18.30;;;12.63;;
48006;SDS011;33771;48.180;11.400;2024-01-07T11:35:00;16.93;;;11.70;;
48006;SDS011;33771;48.180;11.400;2024-01-07T11:37:27;19.60;;;12.83;;
48006;SDS011;33771;48.180;11.400;2024-01-07T11:39:56;19.77;;;12.50;;
48006;SDS011;33771;48.180;11.400;2024-01-07T11:42:22;17.40;;;12.13;;
48006;SDS011;33771;48.180;11.400;2024-01-07T11:44:49;18.33;;;11.87;;
48006;SDS011;33771;48.180;11.400;2024-01-07T11:47:19;18.77;;;11.20;;
48006;SDS011;33771;48.180;11.400;2024-01-07T11:49:46;15.50;;;11.67;;
48006;SDS011;33771;48.180;11.400;2024-01-07T11:52:12;17.13;;;11.00;;
48006;SDS011;33771;48.180;11.400;2024-01-07T11:54:38;14.77;;;10.60;;
48006;SDS011;33771;48.180;11.400;2024-01-07T11:57:04;13.07;;;8.60;;
48006;SDS011;33771;48.180;11.400;2024-01-07T11:59:31;12.07;;;7.80;;
48006;SDS011;33771;48.180;11.400;2024-01-07T12:01:57;14.17;;;9.23;;
48006;SDS011;33771;48.180;11.400;2024-01-07T12:04:23;12.73;;;8.73;;
48006;SDS011;33771;48.180;11.400;2024-01-07T12:06:49;13.33;;;9.20;;
48006;SDS011;33771;48.180;11.400;2024-01-07T12:09:15;13.77;;;9.40;;
48006;SDS011;33771;48.180;11.400;2024-01-07T12:11:41;15.47;;;10.80;;
48006;SDS011;33771;48.180;11.400;2024-01-07T12:14:07;16.60;;;10.13;;
48006;SDS011;33771;48.180;11.400;2024-01-07T12:16:34;15.77;;;10.10;;
48006;SDS011;33771;48.180;11.400;2024-01-07T12:19:00;15.97;;;10.13;;
48006;SDS011;33771;48.180;11.400;2024-01-07T12:21:26;15.23;;;11.67;;
48006;SDS011;33771;48.180;11.400;2024-01-07T12:23:53;16.77;;;11.30;;
48006;SDS011;33771;48.180;11.400;2024-01-07T12:26:19;19.27;;;11.40;;
48006;SDS011;33771;48.180;11.400;2024-01-07T12:28:51;13.53;;;9.97;;
48006;SDS011;33771;48.180;11.400;2024-01-07T12:31:19;18.60;;;11.90;;
48006;SDS011;33771;48.180;11.400;2024-01-07T12:33:45;15.80;;;11.80;;
48006;SDS011;33771;48.180;11.400;2024-01-07T12:36:12;18.83;;;11.77;;
48006;SDS011;33771;48.180;11.400;2024-01-07T12:38:37;17.30;;;11.83;;
48006;SDS011;33771;48.180;11.400;2024-01-07T12:41:03;15.47;;;10.60;;
48006;SDS011;33771;48.180;11.400;2024-01-07T12:43:29;16.33;;;11.00;;
48006;SDS011;33771;48.180;11.400;2024-01-07T12:45:55;17.07;;;12.30;;
48006;SDS011;33771;48.180;11.400;2024-01-07T12:48:21;16.13;;;10.87;;
48006;SDS011;33771;48.180;11.400;2024-01-07T12:50:47;16.50;;;10.90;;
48006;SDS011;33771;48.180;11.400;2024-01-07T12:53:13;16.27;;;11.33;;
48006;SDS011;33771;48.180;11.400;2024-01-07T12:55:39;16.40;;;11.83;;
48006;SDS011;33771;48.180;11.400;2024-01-07T12:58:05;14.53;;;8.87;;
48006;SDS011;33771;48.180;11.400;2024-01-07T13:00:30;14.20;;;10.00;;
48006;SDS011;33771;48.180;11.400;2024-01-07T13:02:56;11.70;;;8.17;;
48006;SDS011;33771;48.180;11.400;2024-01-07T13:05:22;11.40;;;8.87;;
48006;SDS011;33771;48.180;11.400;2024-01-07T13:07:48;13.53;;;8.77;;
48006;SDS011;33771;48.180;11.400;2024-01-07T13:10:15;12.13;;;8.67;;
48006;SDS011;33771;48.180;11.400;2024-01-07T13:12:40;15.10;;;10.17;;
48006;SDS011;33771;48.180;11.400;2024-01-07T13:15:06;16.57;;;9.77;;
48006;SDS011;33771;48.180;11.400;2024-01-07T13:17:32;14.97;;;10.00;;
48006;SDS011;33771;48.180;11.400;2024-01-07T13:19:58;14.83;;;9.43;;
48006;SDS011;33771;48.180;11.400;2024-01-07T13:22:26;14.13;;;9.97;;
48006;SDS011;33771;48.180;11.400;2024-01-07T13:24:52;17.27;;;11.17;;
48006;SDS011;33771;48.180;11.400;2024-01-07T13:27:19;15.47;;;10.33;;
48006;SDS011;33771;48.180;11.400;2024-01-07T13:29:46;15.07;;;10.17;;
48006;SDS011;33771;48.180;11.400;2024-01-07T13:32:12;16.40;;;10.60;;
48006;SDS011;33771;48.180;11.400;2024-01-07T13:34:42;15.50;;;10.67;;
48006;SDS011;33771;48.180;11.400;2024-01-07T13:37:08;14.87;;;10.40;;
48006;SDS011;33771;48.180;11.400;2024-01-07T13:39:33;14.50;;;9.53;;
48006;SDS011;33771;48.180;11.400;2024-01-07T13:41:59;16.13;;;11.43;;
48006;SDS011;33771;48.180;11.400;2024-01-07T13:44:24;14.70;;;9.63;;
48006;SDS011;33771;48.180;11.400;2024-01-07T13:46:50;15.00;;;9.73;;
48006;SDS011;33771;48.180;11.400;2024-01-07T13:49:17;14.40;;;9.90;;
48006;SDS011;33771;48.180;11.400;2024-01-07T13:51:42;16.13;;;10.83;;
48006;SDS011;33771;48.180;11.400;2024-01-07T13:54:09;17.20;;;11.17;;
48006;SDS011;33771;48.180;11.400;2024-01-07T13:56:39;13.37;;;10.13;;
48006;SDS011;33771;48.180;11.400;2024-01-07T13:59:08;12.97;;;9.43;;
48006;SDS011;33771;48.180;11.400;2024-01-07T14:01:33;15.77;;;10.77;;
48006;SDS011;33771;48.180;11.400;2024-01-07T14:03:59;13.43;;;9.93;;
48006;SDS011;33771;48.180;11.400;2024-01-07T14:06:25;14.97;;;10.93;;
48006;SDS011;33771;48.180;11.400;2024-01-07T14:08:50;15.37;;;10.03;;